createdAt,value
2022-12-08T00:01:59.856Z,10.80
2022-12-08T00:04:28.315Z,10.80
2022-12-08T00:07:13.877Z,10.80
2022-12-08T00:09:42.950Z,10.80
2022-12-08T00:12:13.938Z,10.80
2022-12-08T00:14:46.449Z,10.80
2022-12-08T00:17:18.010Z,10.80
2022-12-08T00:19:46.287Z,10.80
2022-12-08T00:22:15.241Z,10.80
2022-12-08T00:24:46.321Z,10.80
2022-12-08T00:27:18.050Z,10.80
2022-12-08T00:29:46.819Z,10.80
2022-12-08T00:32:16.317Z,10.80
2022-12-08T00:34:44.455Z,10.80
2022-12-08T00:37:12.527Z,10.80
2022-12-08T00:39:40.574Z,10.80
2022-12-08T00:42:15.799Z,10.80
2022-12-08T00:44:46.031Z,10.80
2022-12-08T00:47:19.742Z,10.80
2022-12-08T00:49:50.202Z,10.80
2022-12-08T00:52:18.267Z,10.80
2022-12-08T00:54:46.293Z,10.80
2022-12-08T00:57:14.391Z,10.80
2022-12-08T00:59:42.480Z,10.80
2022-12-08T01:02:10.531Z,10.80
2022-12-08T01:04:40.107Z,10.80
2022-12-08T01:07:08.309Z,10.80
2022-12-08T01:09:36.689Z,10.80
2022-12-08T01:12:06.899Z,10.80
2022-12-08T01:14:35.096Z,10.80
2022-12-08T01:17:03.337Z,10.80
2022-12-08T01:19:31.699Z,10.80
2022-12-08T01:22:01.181Z,10.80
2022-12-08T01:24:29.259Z,10.80
2022-12-08T01:26:57.411Z,10.80
2022-12-08T01:29:25.642Z,10.80
2022-12-08T01:31:53.774Z,10.80
2022-12-08T01:34:21.889Z,10.80
2022-12-08T01:36:49.937Z,10.80
2022-12-08T01:39:20.802Z,10.80
2022-12-08T01:41:49.015Z,10.80
2022-12-08T01:44:54.045Z,10.80
2022-12-08T01:47:26.049Z,10.80
2022-12-08T01:49:54.440Z,10.80
2022-12-08T01:52:30.124Z,10.80
2022-12-08T01:55:06.787Z,10.80
2022-12-08T01:57:42.390Z,10.80
2022-12-08T02:00:15.748Z,10.80
2022-12-08T02:02:54.287Z,10.80
2022-12-08T02:05:26.782Z,10.80
2022-12-08T02:07:57.184Z,10.80
2022-12-08T02:10:31.410Z,10.70
2022-12-08T02:13:02.016Z,10.80
2022-12-08T02:15:40.102Z,10.80
2022-12-08T02:18:32.914Z,10.70
2022-12-08T02:21:09.853Z,10.70
2022-12-08T02:23:52.650Z,10.70
2022-12-08T02:27:14.400Z,10.70
2022-12-08T02:30:14.601Z,10.70
2022-12-08T02:33:47.741Z,10.70
2022-12-08T02:36:23.136Z,10.70
2022-12-08T02:39:02.445Z,10.50
2022-12-08T02:41:42.608Z,10.70
2022-12-08T02:44:20.150Z,10.70
2022-12-08T02:46:55.198Z,10.70
2022-12-08T02:49:31.172Z,10.70
2022-12-08T02:52:30.071Z,10.70
2022-12-08T02:55:06.591Z,10.70
2022-12-08T02:57:50.323Z,10.70
2022-12-08T03:00:21.901Z,10.70
2022-12-08T03:03:08.107Z,10.70
2022-12-08T03:05:56.797Z,10.60
2022-12-08T03:08:36.025Z,10.70
2022-12-08T03:11:12.835Z,10.70
2022-12-08T03:13:46.388Z,10.70
2022-12-08T03:16:20.813Z,10.70
2022-12-08T03:19:01.683Z,10.70
2022-12-08T03:21:31.786Z,10.80
2022-12-08T03:24:02.454Z,10.80
2022-12-08T03:26:39.717Z,10.70
2022-12-08T03:29:09.294Z,10.80
2022-12-08T03:31:45.602Z,10.80
2022-12-08T03:34:15.755Z,10.80
2022-12-08T03:36:45.994Z,10.80
2022-12-08T03:39:14.390Z,10.80
2022-12-08T03:41:43.968Z,10.80
2022-12-08T03:44:12.052Z,10.80
2022-12-08T03:46:40.214Z,10.80
2022-12-08T03:49:08.222Z,10.80
2022-12-08T03:51:36.514Z,10.80
2022-12-08T03:54:05.268Z,10.80
2022-12-08T03:56:36.747Z,10.80
2022-12-08T03:59:07.220Z,10.80
2022-12-08T04:01:35.570Z,10.90
2022-12-08T04:04:04.051Z,10.80
2022-12-08T04:06:32.143Z,10.80
2022-12-08T04:09:01.676Z,10.90
2022-12-08T04:11:29.837Z,10.80
2022-12-08T04:13:58.071Z,10.90
2022-12-08T04:16:28.448Z,10.80
2022-12-08T04:18:56.737Z,10.90
2022-12-08T04:21:24.882Z,10.90
2022-12-08T04:23:56.198Z,10.90
2022-12-08T04:26:28.975Z,10.90
2022-12-08T04:28:57.059Z,10.90
2022-12-08T04:31:25.362Z,10.90
2022-12-08T04:33:54.881Z,10.80
2022-12-08T04:36:22.894Z,10.90
2022-12-08T04:38:51.074Z,10.90
2022-12-08T04:41:19.213Z,10.90
2022-12-08T04:43:47.225Z,10.90
2022-12-08T04:46:15.313Z,10.90
2022-12-08T04:48:43.380Z,10.90
2022-12-08T04:51:18.539Z,10.80
2022-12-08T04:53:47.547Z,10.90
2022-12-08T04:56:17.830Z,10.90
2022-12-08T04:58:46.153Z,10.90
2022-12-08T05:01:14.604Z,10.90
2022-12-08T05:03:42.783Z,10.90
2022-12-08T05:06:15.566Z,10.90
2022-12-08T05:08:44.605Z,10.90
2022-12-08T05:11:14.277Z,10.80
2022-12-08T05:13:42.462Z,10.90
2022-12-08T05:16:13.418Z,10.80
2022-12-08T05:18:42.789Z,10.90
2022-12-08T05:21:11.111Z,10.80
2022-12-08T05:23:40.491Z,10.80
2022-12-08T05:26:08.828Z,10.90
2022-12-08T05:28:41.845Z,10.80
2022-12-08T05:31:10.792Z,10.80
2022-12-08T05:33:38.858Z,10.80
2022-12-08T05:36:07.608Z,10.80
2022-12-08T05:38:35.814Z,10.80
2022-12-08T05:41:06.545Z,10.80
2022-12-08T05:43:35.063Z,10.80
2022-12-08T05:46:03.800Z,10.80
2022-12-08T05:48:32.054Z,10.80
2022-12-08T05:51:00.941Z,10.80
2022-12-08T05:53:29.501Z,10.80
2022-12-08T05:55:57.643Z,10.80
2022-12-08T05:58:27.110Z,10.80
2022-12-08T06:00:55.154Z,10.80
2022-12-08T06:03:23.439Z,10.80
2022-12-08T06:05:51.545Z,10.80
2022-12-08T06:08:19.651Z,10.80
2022-12-08T06:10:48.377Z,10.80
2022-12-08T06:13:16.487Z,10.80
2022-12-08T06:15:45.891Z,10.80
2022-12-08T06:18:13.977Z,10.80
2022-12-08T06:20:42.142Z,10.80
2022-12-08T06:23:10.204Z,10.80
2022-12-08T06:25:38.478Z,10.80
2022-12-08T06:28:07.393Z,10.70
2022-12-08T06:30:35.489Z,10.80
2022-12-08T06:33:04.886Z,10.70
2022-12-08T06:35:32.938Z,10.80
2022-12-08T06:38:00.997Z,10.80
2022-12-08T06:40:29.104Z,10.80
2022-12-08T06:42:57.296Z,10.80
2022-12-08T06:45:25.346Z,10.70
2022-12-08T06:47:53.363Z,10.80
2022-12-08T06:50:22.881Z,10.80
2022-12-08T06:53:01.123Z,10.80
2022-12-08T06:55:58.023Z,10.80
2022-12-08T06:58:21.752Z,10.80
2022-12-08T07:00:50.067Z,10.80
2022-12-08T07:03:18.274Z,10.80
2022-12-08T07:05:47.727Z,10.80
2022-12-08T07:08:16.027Z,10.80
2022-12-08T07:10:44.200Z,10.80
2022-12-08T07:13:12.240Z,10.80
2022-12-08T07:15:40.290Z,10.80
2022-12-08T07:18:08.334Z,10.80
2022-12-08T07:20:36.671Z,10.80
2022-12-08T07:23:06.190Z,10.80
2022-12-08T07:25:34.270Z,10.80
2022-12-08T07:28:02.423Z,10.80
2022-12-08T07:30:30.542Z,10.80
2022-12-08T07:32:58.625Z,10.80
2022-12-08T07:35:26.768Z,10.80
2022-12-08T07:37:54.866Z,10.80
2022-12-08T07:40:24.366Z,10.80
2022-12-08T07:42:52.497Z,10.80
2022-12-08T07:45:20.541Z,10.80
2022-12-08T07:47:48.645Z,10.80
2022-12-08T07:50:17.048Z,10.80
2022-12-08T07:52:45.104Z,10.80
2022-12-08T07:55:13.600Z,10.80
2022-12-08T07:57:42.968Z,10.80
2022-12-08T08:00:13.256Z,10.80
2022-12-08T08:02:42.667Z,10.80
2022-12-08T08:05:12.866Z,10.80
2022-12-08T08:07:43.510Z,10.80
2022-12-08T08:10:13.542Z,10.80
2022-12-08T08:12:42.970Z,10.80
2022-12-08T08:15:11.874Z,10.80
2022-12-08T08:17:40.185Z,10.80
2022-12-08T08:20:11.216Z,10.80
2022-12-08T08:22:39.339Z,10.80
2022-12-08T08:25:08.278Z,10.80
2022-12-08T08:27:36.374Z,10.80
2022-12-08T08:30:08.588Z,10.80
2022-12-08T08:32:37.203Z,10.80
2022-12-08T08:35:06.717Z,10.80
2022-12-08T08:37:34.948Z,10.80
2022-12-08T08:40:03.373Z,10.80
2022-12-08T08:42:31.895Z,10.80
2022-12-08T08:44:59.951Z,10.80
2022-12-08T08:47:29.411Z,10.80
2022-12-08T08:49:57.579Z,10.80
2022-12-08T08:52:25.708Z,10.80
2022-12-08T08:54:53.812Z,10.90
2022-12-08T08:57:25.570Z,10.80
2022-12-08T08:59:54.273Z,10.90
2022-12-08T09:02:23.217Z,10.80
2022-12-08T09:04:53.082Z,10.90
2022-12-08T09:07:21.245Z,10.90
2022-12-08T09:09:49.500Z,10.90
2022-12-08T09:12:17.682Z,10.90
2022-12-08T09:14:46.299Z,10.90
2022-12-08T09:17:14.940Z,11.00
2022-12-08T09:19:43.331Z,11.00
2022-12-08T09:22:12.756Z,11.00
2022-12-08T09:24:40.929Z,11.00
2022-12-08T09:27:09.003Z,11.00
2022-12-08T09:29:37.052Z,11.00
2022-12-08T09:32:05.749Z,11.00
2022-12-08T09:34:33.900Z,11.00
2022-12-08T09:37:01.941Z,11.00
2022-12-08T09:39:31.408Z,11.00
2022-12-08T09:42:02.963Z,11.00
2022-12-08T09:44:57.315Z,11.00
2022-12-08T09:47:35.515Z,11.00
2022-12-08T09:50:12.267Z,11.00
2022-12-08T09:52:46.550Z,11.00
2022-12-08T09:55:31.765Z,11.00
2022-12-08T09:58:04.493Z,11.00
2022-12-08T10:00:32.601Z,11.10
2022-12-08T10:03:01.128Z,11.10
2022-12-08T10:05:38.562Z,11.10
2022-12-08T10:08:19.045Z,11.10
2022-12-08T10:10:59.359Z,11.10
2022-12-08T10:13:37.853Z,11.10
2022-12-08T10:16:26.540Z,11.10
2022-12-08T10:19:03.157Z,11.10
2022-12-08T10:21:33.120Z,11.10
2022-12-08T10:24:10.360Z,11.10
2022-12-08T10:26:40.738Z,11.10
2022-12-08T10:29:14.222Z,11.10
2022-12-08T10:31:43.372Z,11.20
2022-12-08T10:34:19.822Z,11.10
2022-12-08T10:36:51.216Z,11.20
2022-12-08T10:39:38.244Z,11.10
2022-12-08T10:42:21.430Z,11.20
2022-12-08T10:45:05.270Z,11.20
2022-12-08T10:47:43.681Z,11.20
2022-12-08T10:50:22.341Z,11.20
2022-12-08T10:52:59.088Z,11.20
2022-12-08T10:55:27.798Z,11.20
2022-12-08T10:57:57.367Z,11.20
2022-12-08T11:00:28.981Z,11.30
2022-12-08T11:03:01.861Z,11.30
2022-12-08T11:05:35.641Z,11.30
2022-12-08T11:08:06.306Z,11.30
2022-12-08T11:10:46.408Z,11.30
2022-12-08T11:13:24.419Z,11.30
2022-12-08T11:15:55.800Z,11.30
2022-12-08T11:18:29.458Z,11.30
2022-12-08T11:21:07.879Z,11.30
2022-12-08T11:23:38.207Z,11.30
2022-12-08T11:26:20.183Z,11.30
2022-12-08T11:28:49.623Z,11.30
2022-12-08T11:31:31.830Z,11.30
2022-12-08T11:34:00.017Z,11.40
2022-12-08T11:36:33.047Z,11.40
2022-12-08T11:39:05.632Z,11.40
2022-12-08T11:41:40.734Z,11.40
2022-12-08T11:44:29.109Z,11.40
2022-12-08T11:47:05.013Z,11.40
2022-12-08T11:49:39.469Z,11.40
2022-12-08T11:52:19.645Z,11.40
2022-12-08T11:54:54.531Z,11.40
2022-12-08T11:57:25.425Z,11.50
2022-12-08T11:59:59.060Z,11.50
2022-12-08T12:02:30.732Z,11.50
2022-12-08T12:05:07.031Z,11.50
2022-12-08T12:07:58.146Z,11.50
2022-12-08T12:10:58.033Z,11.50
2022-12-08T12:14:04.422Z,11.40
2022-12-08T12:17:11.106Z,11.50
2022-12-08T12:19:41.278Z,11.50
2022-12-08T12:22:18.195Z,11.50
2022-12-08T12:24:51.308Z,11.50
2022-12-08T12:27:30.890Z,11.50
2022-12-08T12:30:03.981Z,11.50
2022-12-08T12:32:47.954Z,11.50
2022-12-08T12:35:27.127Z,11.50
2022-12-08T12:38:02.105Z,11.50
2022-12-08T12:40:42.161Z,11.50
2022-12-08T12:43:25.230Z,11.60
2022-12-08T12:46:39.352Z,11.50
2022-12-08T12:50:06.766Z,11.50
2022-12-08T12:52:45.965Z,11.50
2022-12-08T12:55:53.868Z,11.50
2022-12-08T12:58:38.562Z,11.50
2022-12-08T13:01:56.600Z,11.50
2022-12-08T13:04:35.859Z,11.50
2022-12-08T13:07:05.988Z,11.60
2022-12-08T13:09:41.547Z,11.60
2022-12-08T13:12:13.297Z,11.60
2022-12-08T13:14:50.056Z,11.60
2022-12-08T13:17:28.386Z,11.60
2022-12-08T13:20:00.267Z,11.60
2022-12-08T13:23:03.474Z,11.60
2022-12-08T13:25:53.374Z,11.60
2022-12-08T13:28:28.903Z,11.60
2022-12-08T13:30:59.782Z,11.70
2022-12-08T13:33:32.696Z,11.70
2022-12-08T13:36:15.926Z,11.70
2022-12-08T13:38:49.082Z,11.70
2022-12-08T13:41:23.463Z,11.70
2022-12-08T13:47:32.949Z,11.70
2022-12-08T13:51:23.703Z,11.70
2022-12-08T13:58:37.856Z,11.70
2022-12-08T14:01:12.481Z,11.70
2022-12-08T14:04:12.797Z,11.70
2022-12-08T14:06:43.534Z,11.70
2022-12-08T14:09:16.867Z,11.70
2022-12-08T14:11:53.345Z,11.70
2022-12-08T14:14:53.884Z,11.70
2022-12-08T14:17:17.322Z,11.70
2022-12-08T14:19:55.392Z,11.70
2022-12-08T14:22:24.391Z,11.80
2022-12-08T14:24:55.303Z,11.70
2022-12-08T14:27:28.893Z,11.70
2022-12-08T14:30:01.532Z,11.70
2022-12-08T14:32:32.693Z,11.80
2022-12-08T14:35:16.460Z,11.70
2022-12-08T14:37:48.281Z,11.70
2022-12-08T14:40:25.657Z,11.70
2022-12-08T14:43:13.629Z,11.70
2022-12-08T14:45:50.630Z,11.70
2022-12-08T14:48:26.737Z,11.70
2022-12-08T14:51:05.052Z,11.70
2022-12-08T14:53:41.709Z,11.70
2022-12-08T14:56:23.707Z,11.70
2022-12-08T14:59:08.417Z,11.70
2022-12-08T15:01:37.270Z,11.70
2022-12-08T15:04:16.672Z,11.70
2022-12-08T15:06:54.226Z,11.70
2022-12-08T15:09:35.922Z,11.70
2022-12-08T15:12:05.942Z,11.70
2022-12-08T15:14:38.703Z,11.70
2022-12-08T15:17:35.542Z,11.70
2022-12-08T15:20:06.259Z,11.70
2022-12-08T15:22:35.153Z,11.80
2022-12-08T15:25:03.239Z,11.70
2022-12-08T15:27:34.975Z,11.80
2022-12-08T15:30:16.221Z,11.70
2022-12-08T15:32:45.569Z,11.70
2022-12-08T15:35:16.046Z,11.80
2022-12-08T15:37:44.128Z,11.80
2022-12-08T15:40:19.529Z,11.70
2022-12-08T15:42:48.796Z,11.70
2022-12-08T15:45:18.852Z,11.70
2022-12-08T15:47:47.081Z,11.80
2022-12-08T15:50:19.121Z,11.70
2022-12-08T15:52:47.810Z,11.80
2022-12-08T15:55:18.806Z,11.70
2022-12-08T16:00:55.746Z,11.70
2022-12-08T16:04:13.752Z,11.70
2022-12-08T16:07:04.809Z,11.70
2022-12-08T16:09:17.763Z,11.70
2022-12-08T16:12:07.017Z,11.70
2022-12-08T16:17:27.335Z,11.70
2022-12-08T16:19:56.206Z,11.70
2022-12-08T16:22:52.864Z,11.70
2022-12-08T16:25:20.744Z,11.70
2022-12-08T16:28:29.325Z,11.70
2022-12-08T16:30:39.024Z,11.70
2022-12-08T16:33:08.723Z,11.70
2022-12-08T16:35:36.876Z,11.70
2022-12-08T16:38:05.605Z,11.70
2022-12-08T16:40:53.707Z,11.70
2022-12-08T16:43:20.844Z,11.70
2022-12-08T16:45:48.950Z,11.70
2022-12-08T16:48:18.411Z,11.70
2022-12-08T16:50:47.219Z,11.70
2022-12-08T16:53:16.183Z,11.70
2022-12-08T16:55:48.487Z,11.70
2022-12-08T16:58:18.520Z,11.70
2022-12-08T17:00:46.896Z,11.70
2022-12-08T17:03:18.207Z,11.70
2022-12-08T17:05:46.296Z,11.70
2022-12-08T17:08:14.499Z,11.70
2022-12-08T17:10:43.198Z,11.70
2022-12-08T17:13:12.966Z,11.70
2022-12-08T17:15:41.618Z,11.70
2022-12-08T17:18:09.697Z,11.70
2022-12-08T17:20:40.781Z,11.70
2022-12-08T17:23:08.835Z,11.70
2022-12-08T17:25:37.349Z,11.70
2022-12-08T17:28:05.726Z,11.70
2022-12-08T17:30:33.778Z,11.70
2022-12-08T17:33:01.881Z,11.70
2022-12-08T17:35:29.960Z,11.70
2022-12-08T17:37:59.393Z,11.70
2022-12-08T17:40:28.430Z,11.70
2022-12-08T17:42:56.713Z,11.70
2022-12-08T17:45:24.818Z,11.70
2022-12-08T17:47:53.043Z,11.70
2022-12-08T17:50:21.129Z,11.70
2022-12-08T17:52:50.993Z,11.70
2022-12-08T17:55:20.459Z,11.70
2022-12-08T17:57:48.518Z,11.70
2022-12-08T18:00:17.495Z,11.70
2022-12-08T18:02:45.852Z,11.70
2022-12-08T18:05:13.971Z,11.70
2022-12-08T18:07:42.104Z,11.60
2022-12-08T18:10:11.065Z,11.70
2022-12-08T18:12:41.066Z,11.70
2022-12-08T18:15:13.765Z,11.60
2022-12-08T18:17:41.889Z,11.70
2022-12-08T18:20:11.558Z,11.60
2022-12-08T18:22:39.985Z,11.60
2022-12-08T18:25:10.465Z,11.60
2022-12-08T18:27:43.157Z,11.60
2022-12-08T18:30:18.942Z,11.60
2022-12-08T18:32:47.549Z,11.60
2022-12-08T18:35:16.129Z,11.60
2022-12-08T18:37:44.206Z,11.60
2022-12-08T18:40:14.135Z,11.60
2022-12-08T18:42:43.624Z,11.60
2022-12-08T18:45:12.514Z,11.60
2022-12-08T18:47:41.517Z,11.60
2022-12-08T18:50:12.837Z,11.60
2022-12-08T18:52:41.111Z,11.60
2022-12-08T18:55:11.041Z,11.60
2022-12-08T18:57:46.089Z,11.60
2022-12-08T19:00:18.337Z,11.60
2022-12-08T19:02:46.953Z,11.60
2022-12-08T19:05:15.385Z,11.60
2022-12-08T19:07:44.983Z,11.60
2022-12-08T19:10:14.450Z,11.60
2022-12-08T19:12:42.879Z,11.60
2022-12-08T19:15:13.196Z,11.60
2022-12-08T19:17:41.449Z,11.60
2022-12-08T19:20:11.592Z,11.60
2022-12-08T19:22:39.723Z,11.60
2022-12-08T19:25:08.984Z,11.60
2022-12-08T19:27:37.091Z,11.60
2022-12-08T19:30:07.691Z,11.60
2022-12-08T19:32:37.411Z,11.60
2022-12-08T19:35:07.473Z,11.60
2022-12-08T19:37:36.423Z,11.60
2022-12-08T19:40:23.016Z,11.60
2022-12-08T19:43:08.689Z,11.60
2022-12-08T19:45:37.687Z,11.60
2022-12-08T19:48:07.844Z,11.60
2022-12-08T19:50:39.728Z,11.60
2022-12-08T19:53:11.889Z,11.60
2022-12-08T19:55:41.137Z,11.60
2022-12-08T19:58:10.472Z,11.60
2022-12-08T20:00:43.985Z,11.50
2022-12-08T20:03:17.356Z,11.50
2022-12-08T20:05:48.629Z,11.60
2022-12-08T20:08:16.986Z,11.60
2022-12-08T20:10:45.817Z,11.60
2022-12-08T20:13:32.229Z,11.60
2022-12-08T20:16:00.579Z,11.50
2022-12-08T20:18:30.272Z,11.50
2022-12-08T20:20:58.492Z,11.50
2022-12-08T20:23:26.705Z,11.50
2022-12-08T20:25:54.804Z,11.50
2022-12-08T20:28:22.902Z,11.60
2022-12-08T20:30:51.666Z,11.60
2022-12-08T20:33:21.021Z,11.50
2022-12-08T20:36:00.139Z,11.50
2022-12-08T20:38:29.084Z,11.50
2022-12-08T20:40:58.537Z,11.50
2022-12-08T20:43:26.908Z,11.50
2022-12-08T20:45:55.066Z,11.50
2022-12-08T20:48:23.280Z,11.50
2022-12-08T20:50:53.237Z,11.50
2022-12-08T20:53:21.314Z,11.50
2022-12-08T20:55:49.409Z,11.50
2022-12-08T20:58:17.794Z,11.50
2022-12-08T21:00:46.022Z,11.50
2022-12-08T21:03:15.368Z,11.50
2022-12-08T21:05:50.318Z,11.50
2022-12-08T21:08:20.904Z,11.40
2022-12-08T21:10:55.411Z,11.50
2022-12-08T21:13:23.870Z,11.50
2022-12-08T21:15:52.224Z,11.50
2022-12-08T21:18:21.149Z,11.50
2022-12-08T21:20:49.932Z,11.50
2022-12-08T21:23:20.131Z,11.50
2022-12-08T21:25:48.622Z,11.50
2022-12-08T21:28:16.721Z,11.50
2022-12-08T21:30:44.998Z,11.50
2022-12-08T21:33:13.349Z,11.50
2022-12-08T21:35:41.547Z,11.50
2022-12-08T21:38:09.657Z,11.50
2022-12-08T21:40:39.332Z,11.40
2022-12-08T21:43:07.678Z,11.50
2022-12-08T21:45:36.131Z,11.40
2022-12-08T21:48:11.005Z,11.40
2022-12-08T21:50:40.042Z,11.40
2022-12-08T21:53:08.358Z,11.40
2022-12-08T21:55:37.901Z,11.40
2022-12-08T21:58:06.249Z,11.40
2022-12-08T22:00:34.569Z,11.40
2022-12-08T22:03:03.757Z,11.40
2022-12-08T22:05:32.482Z,11.40
2022-12-08T22:08:00.881Z,11.40
2022-12-08T22:10:29.274Z,11.40
2022-12-08T22:12:58.869Z,11.40
2022-12-08T22:15:29.761Z,11.40
2022-12-08T22:17:58.265Z,11.40
2022-12-08T22:20:26.428Z,11.40
2022-12-08T22:22:54.604Z,11.40
2022-12-08T22:25:22.985Z,11.30
2022-12-08T22:27:51.275Z,11.40
2022-12-08T22:30:21.510Z,11.40
2022-12-08T22:32:49.828Z,11.40
2022-12-08T22:35:18.043Z,11.30
2022-12-08T22:37:49.479Z,11.30
2022-12-08T22:40:17.895Z,11.30
2022-12-08T22:42:46.067Z,11.40
2022-12-08T22:45:14.663Z,11.30
2022-12-08T22:47:44.341Z,11.30
2022-12-08T22:50:13.093Z,11.30
2022-12-08T22:52:41.444Z,11.30
2022-12-08T22:55:10.853Z,11.30
2022-12-08T22:57:38.975Z,11.30
2022-12-08T23:00:11.293Z,11.30
2022-12-08T23:02:40.095Z,11.30
2022-12-08T23:05:11.257Z,11.30
2022-12-08T23:07:40.610Z,11.30
2022-12-08T23:10:11.621Z,11.30
2022-12-08T23:12:40.252Z,11.30
2022-12-08T23:15:10.726Z,11.30
2022-12-08T23:17:39.076Z,11.30
2022-12-08T23:20:10.878Z,11.30
2022-12-08T23:22:39.399Z,11.30
2022-12-08T23:25:09.501Z,11.30
2022-12-08T23:27:38.679Z,11.30
2022-12-08T23:30:09.255Z,11.30
2022-12-08T23:32:37.816Z,11.30
2022-12-08T23:35:09.491Z,11.30
2022-12-08T23:37:37.920Z,11.30
2022-12-08T23:40:08.151Z,11.30
2022-12-08T23:42:36.527Z,11.30
2022-12-08T23:45:05.484Z,11.30
2022-12-08T23:47:33.748Z,11.30
2022-12-08T23:50:01.978Z,11.30
2022-12-08T23:52:31.369Z,11.30
2022-12-08T23:54:59.472Z,11.30
2022-12-08T23:57:27.720Z,11.30
2022-12-08T23:59:55.829Z,11.20
